createdAt,value
2017-12-15T00:00:14.667Z,99.84
2017-12-15T00:02:41.017Z,99.86
2017-12-15T00:05:07.277Z,99.79
2017-12-15T00:07:33.495Z,99.69
2017-12-15T00:09:59.562Z,99.79
2017-12-15T00:12:25.585Z,99.77
2017-12-15T00:14:51.642Z,99.52
2017-12-15T00:17:18.707Z,99.48
2017-12-15T00:19:44.711Z,99.32
2017-12-15T00:22:10.813Z,99.34
2017-12-15T00:24:36.965Z,99.42
2017-12-15T00:27:03.083Z,99.56
2017-12-15T00:29:29.175Z,99.63
2017-12-15T00:31:55.314Z,99.66
2017-12-15T00:34:21.362Z,99.70
2017-12-15T00:36:47.414Z,99.64
2017-12-15T00:39:13.524Z,99.63
2017-12-15T00:41:39.638Z,99.64
2017-12-15T00:44:05.702Z,99.66
2017-12-15T00:46:31.963Z,99.76
2017-12-15T00:48:58.070Z,99.83
2017-12-15T00:51:24.146Z,99.91
2017-12-15T00:53:50.353Z,99.86
2017-12-15T00:56:16.482Z,100.00
2017-12-15T00:58:42.525Z,99.95
2017-12-15T01:01:08.534Z,100.00
2017-12-15T01:03:34.833Z,100.00
2017-12-15T01:06:00.898Z,100.00
2017-12-15T01:08:26.970Z,100.00
2017-12-15T01:10:53.015Z,100.00
2017-12-15T01:13:19.068Z,99.99
2017-12-15T01:15:45.140Z,99.88
2017-12-15T01:18:11.234Z,99.84
2017-12-15T01:20:37.279Z,99.79
2017-12-15T01:23:03.316Z,99.80
2017-12-15T01:25:29.482Z,99.75
2017-12-15T01:27:55.616Z,99.89
2017-12-15T01:30:21.732Z,99.88
2017-12-15T01:32:47.828Z,99.91
2017-12-15T01:35:13.884Z,99.99
2017-12-15T01:37:39.919Z,99.88
2017-12-15T01:40:06.018Z,99.95
2017-12-15T01:42:32.265Z,99.94
2017-12-15T01:44:58.318Z,99.92
2017-12-15T01:47:24.401Z,100.00
2017-12-15T01:49:50.424Z,100.00
2017-12-15T01:52:16.517Z,100.00
2017-12-15T01:54:42.541Z,100.00
2017-12-15T01:57:08.822Z,100.00
2017-12-15T01:59:35.615Z,100.00
2017-12-15T02:02:01.679Z,100.00
2017-12-15T02:04:27.827Z,100.00
2017-12-15T02:06:53.903Z,100.00
2017-12-15T02:09:19.978Z,100.00
2017-12-15T02:11:46.079Z,100.00
2017-12-15T02:14:12.228Z,100.00
2017-12-15T02:16:38.352Z,99.77
2017-12-15T02:19:04.465Z,99.50
2017-12-15T02:21:30.617Z,99.06
2017-12-15T02:23:57.003Z,99.11
2017-12-15T02:26:23.097Z,98.93
2017-12-15T02:28:49.275Z,98.86
2017-12-15T02:31:15.359Z,98.95
2017-12-15T02:33:41.361Z,99.06
2017-12-15T02:36:07.455Z,99.11
2017-12-15T02:38:33.601Z,99.38
2017-12-15T02:40:59.596Z,99.63
2017-12-15T02:43:25.656Z,99.59
2017-12-15T02:45:51.703Z,99.55
2017-12-15T02:48:17.851Z,99.53
2017-12-15T02:50:43.913Z,99.64
2017-12-15T02:53:10.106Z,99.71
2017-12-15T02:55:36.186Z,99.54
2017-12-15T02:58:02.348Z,99.77
2017-12-15T03:00:29.132Z,99.79
2017-12-15T03:02:55.291Z,99.80
2017-12-15T03:05:21.423Z,99.75
2017-12-15T03:07:47.577Z,99.70
2017-12-15T03:10:13.690Z,99.53
2017-12-15T03:12:39.864Z,99.22
2017-12-15T03:15:06.027Z,98.68
2017-12-15T03:17:32.059Z,98.09
2017-12-15T03:19:58.179Z,98.21
2017-12-15T03:22:24.227Z,97.76
2017-12-15T03:24:50.327Z,97.57
2017-12-15T03:27:16.527Z,97.47
2017-12-15T03:29:42.595Z,97.46
2017-12-15T03:32:08.761Z,97.28
2017-12-15T03:34:34.849Z,97.02
2017-12-15T03:37:00.980Z,96.57
2017-12-15T03:39:27.167Z,97.21
2017-12-15T03:41:53.334Z,96.83
2017-12-15T03:44:19.451Z,96.49
2017-12-15T03:46:45.585Z,96.56
2017-12-15T03:49:11.663Z,96.28
2017-12-15T03:51:37.722Z,96.38
2017-12-15T03:54:03.802Z,96.36
2017-12-15T03:56:29.960Z,96.61
2017-12-15T03:58:56.046Z,96.09
2017-12-15T04:01:22.124Z,95.85
2017-12-15T04:03:48.184Z,96.26
2017-12-15T04:06:14.335Z,96.14
2017-12-15T04:08:40.527Z,96.21
2017-12-15T04:11:06.636Z,96.36
2017-12-15T04:13:32.788Z,96.31
2017-12-15T04:15:58.838Z,96.31
2017-12-15T04:18:24.981Z,96.36
2017-12-15T04:20:51.129Z,96.62
2017-12-15T04:23:17.253Z,96.68
2017-12-15T04:25:43.277Z,96.80
2017-12-15T04:31:02.558Z,97.01
2017-12-15T04:33:28.707Z,97.19
2017-12-15T04:35:54.840Z,97.33
2017-12-15T04:38:20.921Z,97.40
2017-12-15T04:40:47.197Z,97.56
2017-12-15T04:43:13.303Z,97.68
2017-12-15T04:45:39.470Z,97.82
2017-12-15T04:48:05.781Z,97.96
2017-12-15T04:50:32.089Z,98.07
2017-12-15T04:52:58.391Z,98.15
2017-12-15T04:55:24.533Z,98.34
2017-12-15T04:57:50.718Z,98.46
2017-12-15T05:00:16.879Z,98.60
2017-12-15T05:02:42.904Z,98.48
2017-12-15T05:05:15.813Z,98.60
2017-12-15T05:07:42.008Z,98.52
2017-12-15T05:10:08.206Z,98.55
2017-12-15T05:12:34.300Z,98.67
2017-12-15T05:15:00.316Z,98.55
2017-12-15T05:17:26.411Z,98.54
2017-12-15T05:19:52.572Z,98.12
2017-12-15T05:22:18.798Z,97.34
2017-12-15T05:24:45.062Z,96.89
2017-12-15T05:27:11.264Z,96.16
2017-12-15T05:29:37.470Z,95.92
2017-12-15T05:32:03.712Z,96.22
2017-12-15T05:34:29.928Z,96.56
2017-12-15T05:36:57.174Z,96.95
2017-12-15T05:39:23.250Z,97.13
2017-12-15T05:41:49.479Z,97.58
2017-12-15T05:44:16.220Z,98.03
2017-12-15T05:46:42.430Z,98.13
2017-12-15T05:49:08.826Z,98.26
2017-12-15T05:51:34.980Z,98.49
2017-12-15T05:54:01.022Z,98.94
2017-12-15T05:56:27.177Z,99.32
2017-12-15T05:58:53.229Z,99.55
2017-12-15T06:01:19.273Z,99.84
2017-12-15T06:03:45.397Z,100.00
2017-12-15T06:06:11.735Z,99.72
2017-12-15T06:08:38.021Z,99.65
2017-12-15T06:11:04.189Z,99.63
2017-12-15T06:13:30.282Z,99.71
2017-12-15T06:15:56.425Z,100.00
2017-12-15T06:18:22.666Z,100.00
2017-12-15T06:20:48.787Z,100.00
2017-12-15T06:23:14.892Z,100.00
2017-12-15T06:25:41.182Z,100.00
2017-12-15T06:28:07.407Z,100.00
2017-12-15T06:30:33.646Z,100.00
2017-12-15T06:32:59.761Z,100.00
2017-12-15T06:35:25.951Z,100.00
2017-12-15T06:37:53.074Z,100.00
2017-12-15T06:40:20.892Z,100.00
2017-12-15T06:42:47.264Z,100.00
2017-12-15T06:45:13.476Z,100.00
2017-12-15T06:50:13.224Z,100.00
2017-12-15T06:52:39.528Z,100.00
2017-12-15T06:55:05.800Z,100.00
2017-12-15T06:57:32.360Z,100.00
2017-12-15T06:59:58.743Z,100.00
2017-12-15T07:02:24.870Z,100.00
2017-12-15T07:04:52.136Z,100.00
2017-12-15T07:07:18.437Z,99.82
2017-12-15T07:09:44.596Z,99.24
2017-12-15T07:12:10.738Z,98.81
2017-12-15T07:14:36.870Z,98.49
2017-12-15T07:17:03.030Z,98.29
2017-12-15T07:19:29.087Z,97.82
2017-12-15T07:21:55.475Z,97.43
2017-12-15T07:24:21.635Z,97.64
2017-12-15T07:26:48.191Z,97.47
2017-12-15T07:29:14.644Z,97.48
2017-12-15T07:31:41.283Z,97.23
2017-12-15T07:34:07.449Z,96.84
2017-12-15T07:36:33.521Z,96.54
2017-12-15T07:38:59.699Z,96.03
2017-12-15T07:41:25.885Z,95.62
2017-12-15T07:43:52.049Z,95.19
2017-12-15T07:46:18.236Z,94.92
2017-12-15T07:48:45.350Z,94.00
2017-12-15T07:51:11.560Z,93.32
2017-12-15T07:53:37.794Z,91.95
2017-12-15T07:56:03.913Z,91.32
2017-12-15T07:58:30.129Z,90.77
2017-12-15T08:00:56.204Z,90.02
2017-12-15T08:03:22.306Z,90.82
2017-12-15T08:05:48.466Z,90.04
2017-12-15T08:08:14.626Z,89.90
2017-12-15T08:10:40.776Z,89.43
2017-12-15T08:13:06.880Z,88.33
2017-12-15T08:15:33.166Z,89.25
2017-12-15T08:17:59.276Z,89.37
2017-12-15T08:20:25.493Z,89.81
2017-12-15T08:22:51.648Z,88.45
2017-12-15T08:25:17.778Z,88.37
2017-12-15T08:27:43.935Z,88.31
2017-12-15T08:30:10.085Z,88.65
2017-12-15T08:32:36.164Z,87.00
2017-12-15T08:35:02.383Z,87.77
2017-12-15T08:37:28.384Z,87.60
2017-12-15T08:39:54.496Z,87.92
2017-12-15T08:42:20.636Z,87.86
2017-12-15T08:44:46.835Z,87.81
2017-12-15T08:47:12.979Z,87.84
2017-12-15T08:49:39.294Z,87.16
2017-12-15T08:52:05.485Z,87.12
2017-12-15T08:54:31.639Z,87.13
2017-12-15T08:56:57.916Z,86.86
2017-12-15T08:59:24.077Z,85.90
2017-12-15T09:01:50.687Z,85.29
2017-12-15T09:04:22.595Z,85.16
2017-12-15T09:06:48.759Z,83.77
2017-12-15T09:09:14.823Z,83.29
2017-12-15T09:11:41.015Z,83.39
2017-12-15T09:14:07.950Z,83.02
2017-12-15T09:16:34.047Z,82.90
2017-12-15T09:19:00.317Z,82.27
2017-12-15T09:21:26.331Z,81.96
2017-12-15T09:23:52.653Z,81.70
2017-12-15T09:26:18.925Z,81.54
2017-12-15T09:28:45.115Z,80.15
2017-12-15T09:31:11.472Z,78.65
2017-12-15T09:33:37.963Z,77.66
2017-12-15T09:36:04.192Z,77.69
2017-12-15T09:38:30.491Z,77.36
2017-12-15T09:40:56.687Z,75.84
2017-12-15T09:43:22.912Z,74.97
2017-12-15T09:45:49.002Z,75.13
2017-12-15T09:48:15.167Z,75.33
2017-12-15T09:50:41.216Z,75.94
2017-12-15T09:53:07.352Z,74.16
2017-12-15T09:55:39.620Z,74.12
2017-12-15T09:58:05.898Z,74.31
2017-12-15T10:00:32.174Z,74.55
2017-12-15T10:02:58.442Z,74.98
2017-12-15T10:05:24.648Z,73.84
2017-12-15T10:07:50.811Z,73.83
2017-12-15T10:13:10.025Z,71.25
2017-12-15T10:15:36.710Z,71.11
2017-12-15T10:18:03.216Z,68.52
2017-12-15T10:20:29.521Z,68.06
2017-12-15T10:22:55.736Z,67.47
2017-12-15T10:25:22.193Z,68.19
2017-12-15T10:27:48.474Z,68.86
2017-12-15T10:30:14.963Z,68.95
2017-12-15T10:32:41.157Z,69.51
2017-12-15T10:35:07.595Z,69.89
2017-12-15T10:37:33.782Z,70.92
2017-12-15T10:39:59.976Z,70.26
2017-12-15T10:42:26.175Z,70.46
2017-12-15T10:44:52.709Z,70.65
2017-12-15T10:47:18.846Z,71.34
2017-12-15T10:49:45.237Z,69.93
2017-12-15T10:52:11.741Z,70.63
2017-12-15T10:54:38.032Z,70.66
2017-12-15T10:57:04.493Z,71.43
2017-12-15T10:59:30.801Z,72.58
2017-12-15T11:01:57.017Z,71.83
2017-12-15T11:04:23.358Z,71.60
2017-12-15T11:06:49.609Z,70.36
2017-12-15T11:09:15.910Z,69.67
2017-12-15T11:11:42.242Z,69.83
2017-12-15T11:14:09.202Z,68.84
2017-12-15T11:16:35.381Z,67.67
2017-12-15T11:19:01.718Z,68.49
2017-12-15T11:21:27.868Z,68.84
2017-12-15T11:23:54.112Z,67.61
2017-12-15T11:26:20.385Z,68.01
2017-12-15T11:28:46.442Z,67.55
2017-12-15T11:31:12.522Z,66.92
2017-12-15T11:33:38.791Z,66.59
2017-12-15T11:36:04.926Z,66.42
2017-12-15T11:38:31.139Z,66.27
2017-12-15T11:40:57.411Z,66.60
2017-12-15T11:43:23.729Z,66.12
2017-12-15T11:45:50.038Z,65.29
2017-12-15T11:48:17.151Z,64.90
2017-12-15T11:50:43.663Z,64.70
2017-12-15T11:53:10.020Z,63.03
2017-12-15T11:55:36.127Z,63.05
2017-12-15T11:58:02.335Z,61.27
2017-12-15T12:00:28.419Z,61.32
2017-12-15T12:02:54.684Z,62.24
2017-12-15T12:05:20.867Z,62.30
2017-12-15T12:07:47.224Z,62.20
2017-12-15T12:10:13.356Z,62.32
2017-12-15T12:12:39.655Z,63.46
2017-12-15T12:15:05.945Z,63.07
2017-12-15T12:17:32.025Z,64.76
2017-12-15T12:19:58.137Z,65.29
2017-12-15T12:22:24.268Z,65.84
2017-12-15T12:24:50.508Z,65.46
2017-12-15T12:27:16.580Z,65.05
2017-12-15T12:29:43.379Z,65.56
2017-12-15T12:32:09.789Z,65.11
2017-12-15T12:34:36.027Z,65.54
2017-12-15T12:37:02.307Z,66.00
2017-12-15T12:39:28.544Z,65.65
2017-12-15T12:41:54.867Z,65.11
2017-12-15T12:44:21.942Z,65.88
2017-12-15T12:46:48.210Z,65.67
2017-12-15T12:49:14.432Z,65.98
2017-12-15T12:51:40.631Z,66.19
2017-12-15T12:54:06.871Z,65.01
2017-12-15T12:56:33.164Z,65.50
2017-12-15T12:58:59.406Z,64.52
2017-12-15T13:01:25.609Z,65.85
2017-12-15T13:03:51.774Z,65.81
2017-12-15T13:06:17.969Z,65.79
2017-12-15T13:08:44.259Z,65.01
2017-12-15T13:11:10.767Z,65.79
2017-12-15T13:13:37.023Z,65.00
2017-12-15T13:16:03.187Z,64.93
2017-12-15T13:18:29.304Z,65.76
2017-12-15T13:20:55.526Z,67.31
2017-12-15T13:23:22.015Z,67.11
2017-12-15T13:25:48.174Z,67.49
2017-12-15T13:28:15.224Z,68.40
2017-12-15T13:30:41.639Z,68.72
2017-12-15T13:33:07.765Z,68.62
2017-12-15T13:35:34.068Z,67.94
2017-12-15T13:38:00.207Z,69.21
2017-12-15T13:40:26.992Z,68.37
2017-12-15T13:42:53.198Z,69.17
2017-12-15T13:45:19.391Z,70.52
2017-12-15T13:47:45.558Z,70.66
2017-12-15T13:50:11.868Z,71.72
2017-12-15T13:52:37.962Z,71.63
2017-12-15T13:55:04.220Z,70.74
2017-12-15T13:57:30.366Z,70.58
2017-12-15T13:59:56.573Z,71.64
2017-12-15T14:02:22.732Z,69.76
2017-12-15T14:04:48.898Z,69.95
2017-12-15T14:07:15.262Z,68.58
2017-12-15T14:09:41.385Z,68.35
2017-12-15T14:12:07.550Z,68.17
2017-12-15T14:14:33.778Z,67.11
2017-12-15T14:17:00.484Z,68.32
2017-12-15T14:19:26.609Z,67.63
2017-12-15T14:21:53.272Z,67.90
2017-12-15T14:24:19.902Z,68.59
2017-12-15T14:26:46.373Z,69.49
2017-12-15T14:29:12.610Z,69.23
2017-12-15T14:31:38.957Z,69.72
2017-12-15T14:34:05.608Z,69.39
2017-12-15T14:36:32.419Z,69.65
2017-12-15T14:38:58.596Z,69.72
2017-12-15T14:41:24.675Z,69.75
2017-12-15T14:43:50.830Z,69.88
2017-12-15T14:46:17.076Z,71.61
2017-12-15T14:48:43.932Z,71.25
2017-12-15T14:51:10.447Z,71.33
2017-12-15T14:53:37.056Z,72.92
2017-12-15T14:56:03.244Z,72.60
2017-12-15T14:58:29.327Z,73.68
2017-12-15T15:00:55.584Z,73.29
2017-12-15T15:03:21.730Z,74.77
2017-12-15T15:05:47.821Z,75.44
2017-12-15T15:08:13.888Z,76.91
2017-12-15T15:10:40.085Z,77.14
2017-12-15T15:13:06.203Z,78.13
2017-12-15T15:15:32.608Z,79.06
2017-12-15T15:17:58.846Z,79.70
2017-12-15T15:20:25.106Z,80.81
2017-12-15T15:22:51.188Z,81.42
2017-12-15T15:25:17.318Z,81.55
2017-12-15T15:27:43.453Z,81.86
2017-12-15T15:30:09.754Z,82.54
2017-12-15T15:32:35.812Z,82.33
2017-12-15T15:35:02.114Z,82.61
2017-12-15T15:37:28.360Z,82.67
2017-12-15T15:39:54.589Z,82.84
2017-12-15T15:42:20.955Z,82.81
2017-12-15T15:44:47.294Z,82.95
2017-12-15T15:47:13.590Z,83.16
2017-12-15T15:49:39.882Z,83.34
2017-12-15T15:52:06.045Z,83.87
2017-12-15T15:54:32.252Z,83.79
2017-12-15T15:56:58.509Z,83.75
2017-12-15T15:59:24.826Z,83.82
2017-12-15T16:01:50.970Z,84.15
2017-12-15T16:04:17.193Z,84.56
2017-12-15T16:06:43.414Z,84.82
2017-12-15T16:09:09.621Z,85.44
2017-12-15T16:11:35.805Z,85.96
2017-12-15T16:14:02.077Z,86.15
2017-12-15T16:16:28.141Z,86.42
2017-12-15T16:18:54.231Z,86.38
2017-12-15T16:21:20.361Z,86.76
2017-12-15T16:23:46.491Z,86.97
2017-12-15T16:26:12.557Z,86.49
2017-12-15T16:28:38.709Z,87.03
2017-12-15T16:31:04.753Z,86.71
2017-12-15T16:33:31.203Z,85.96
2017-12-15T16:35:57.447Z,85.54
2017-12-15T16:38:23.736Z,85.50
2017-12-15T16:40:49.996Z,85.11
2017-12-15T16:43:16.210Z,84.59
2017-12-15T16:45:42.520Z,83.88
2017-12-15T16:48:08.718Z,83.74
2017-12-15T16:50:34.862Z,83.11
2017-12-15T16:53:01.242Z,83.11
2017-12-15T16:55:27.433Z,82.96
2017-12-15T16:57:53.679Z,82.97
2017-12-15T17:00:19.864Z,83.09
2017-12-15T17:02:45.994Z,83.20
2017-12-15T17:05:12.150Z,83.51
2017-12-15T17:07:38.374Z,83.69
2017-12-15T17:10:04.540Z,83.52
2017-12-15T17:12:30.712Z,83.67
2017-12-15T17:14:56.864Z,83.77
2017-12-15T17:17:22.959Z,84.04
2017-12-15T17:19:49.090Z,84.06
2017-12-15T17:22:15.271Z,83.92
2017-12-15T17:24:41.460Z,83.18
2017-12-15T17:27:07.602Z,82.90
2017-12-15T17:29:33.915Z,82.88
2017-12-15T17:32:00.099Z,83.18
2017-12-15T17:34:26.387Z,83.87
2017-12-15T17:36:52.626Z,84.38
2017-12-15T17:39:18.845Z,84.84
2017-12-15T17:41:44.931Z,85.35
2017-12-15T17:44:11.402Z,86.21
2017-12-15T17:46:37.618Z,86.81
2017-12-15T17:49:03.821Z,87.33
2017-12-15T17:51:30.463Z,87.84
2017-12-15T17:53:56.711Z,88.23
2017-12-15T17:56:22.797Z,88.47
2017-12-15T17:58:48.871Z,88.86
2017-12-15T18:01:14.969Z,89.35
2017-12-15T18:03:41.136Z,89.67
2017-12-15T18:06:07.300Z,89.55
2017-12-15T18:08:33.416Z,89.79
2017-12-15T18:10:59.479Z,89.99
2017-12-15T18:13:25.610Z,90.00
2017-12-15T18:15:51.731Z,90.24
2017-12-15T18:18:17.792Z,90.31
2017-12-15T18:20:44.028Z,90.66
2017-12-15T18:23:10.234Z,90.51
2017-12-15T18:25:36.473Z,90.20
2017-12-15T18:28:02.577Z,89.95
2017-12-15T18:30:28.676Z,89.90
2017-12-15T18:32:54.785Z,90.02
2017-12-15T18:35:20.918Z,90.15
2017-12-15T18:37:47.044Z,90.22
2017-12-15T18:40:13.627Z,90.11
2017-12-15T18:42:39.839Z,90.40
2017-12-15T18:45:06.050Z,90.41
2017-12-15T18:47:32.211Z,90.37
2017-12-15T18:49:58.433Z,90.45
2017-12-15T18:52:24.530Z,90.34
2017-12-15T18:54:50.699Z,90.31
2017-12-15T18:57:16.978Z,90.10
2017-12-15T18:59:43.063Z,90.14
2017-12-15T19:02:09.147Z,89.17
2017-12-15T19:04:35.547Z,88.88
2017-12-15T19:07:02.090Z,88.70
2017-12-15T19:09:28.537Z,88.72
2017-12-15T19:11:54.841Z,88.68
2017-12-15T19:14:20.969Z,88.73
2017-12-15T19:16:47.089Z,88.81
2017-12-15T19:19:13.377Z,88.83
2017-12-15T19:21:39.570Z,88.92
2017-12-15T19:24:05.793Z,89.07
2017-12-15T19:26:32.025Z,89.22
2017-12-15T19:28:58.195Z,89.50
2017-12-15T19:31:24.293Z,89.59
2017-12-15T19:33:50.460Z,90.13
2017-12-15T19:36:16.762Z,90.29
2017-12-15T19:38:42.938Z,90.38
2017-12-15T19:41:09.167Z,90.66
2017-12-15T19:43:35.330Z,90.83
2017-12-15T19:46:01.598Z,91.17
2017-12-15T19:48:27.747Z,91.46
2017-12-15T19:50:54.166Z,91.43
2017-12-15T19:53:21.293Z,91.23
2017-12-15T19:55:52.903Z,91.47
2017-12-15T19:58:19.898Z,91.70
2017-12-15T20:00:46.113Z,91.41
2017-12-15T20:03:12.795Z,91.58
2017-12-15T20:05:39.655Z,91.71
2017-12-15T20:08:06.825Z,91.77
2017-12-15T20:10:33.791Z,91.43
2017-12-15T20:13:00.224Z,91.25
2017-12-15T20:15:26.479Z,91.11
2017-12-15T20:17:52.693Z,91.09
2017-12-15T20:20:19.007Z,91.00
2017-12-15T20:22:45.627Z,90.94
2017-12-15T20:25:11.790Z,90.98
2017-12-15T20:27:38.010Z,90.80
2017-12-15T20:30:04.339Z,90.56
2017-12-15T20:32:30.978Z,90.51
2017-12-15T20:34:57.256Z,90.53
2017-12-15T20:37:23.337Z,90.70
2017-12-15T20:39:49.847Z,90.52
2017-12-15T20:42:16.092Z,90.83
2017-12-15T20:44:42.399Z,91.13
2017-12-15T20:47:08.584Z,91.43
2017-12-15T20:49:35.068Z,91.89
2017-12-15T20:52:01.337Z,92.23
2017-12-15T20:54:28.013Z,92.69
2017-12-15T20:56:54.223Z,92.79
2017-12-15T20:59:20.491Z,93.08
2017-12-15T21:01:46.808Z,93.23
2017-12-15T21:04:13.105Z,93.11
2017-12-15T21:06:39.278Z,93.03
2017-12-15T21:09:05.548Z,93.10
2017-12-15T21:11:31.726Z,92.96
2017-12-15T21:13:57.956Z,92.75
2017-12-15T21:16:24.233Z,92.27
2017-12-15T21:18:50.640Z,91.80
2017-12-15T21:21:16.976Z,91.49
2017-12-15T21:23:43.339Z,91.66
2017-12-15T21:26:09.641Z,91.92
2017-12-15T21:28:35.909Z,92.06
2017-12-15T21:31:02.175Z,92.22
2017-12-15T21:33:28.483Z,92.12
2017-12-15T21:35:54.837Z,91.65
2017-12-15T21:38:20.952Z,91.75
2017-12-15T21:40:47.106Z,91.85
2017-12-15T21:43:13.420Z,91.84
2017-12-15T21:45:39.841Z,91.73
2017-12-15T21:48:06.092Z,91.79
2017-12-15T21:50:32.231Z,91.92
2017-12-15T21:52:58.881Z,92.10
2017-12-15T21:55:25.223Z,92.09
2017-12-15T21:57:51.337Z,92.38
2017-12-15T22:00:17.539Z,92.53
2017-12-15T22:02:43.762Z,92.73
2017-12-15T22:05:10.135Z,92.35
2017-12-15T22:07:36.227Z,91.75
2017-12-15T22:10:02.697Z,91.29
2017-12-15T22:12:28.832Z,90.75
2017-12-15T22:14:55.170Z,89.85
2017-12-15T22:17:21.704Z,88.81
2017-12-15T22:19:49.768Z,88.62
2017-12-15T22:22:17.278Z,88.47
2017-12-15T22:24:43.461Z,87.73
2017-12-15T22:27:09.694Z,86.97
2017-12-15T22:29:35.935Z,87.08
2017-12-15T22:32:02.242Z,87.07
2017-12-15T22:34:28.555Z,86.48
2017-12-15T22:36:54.903Z,86.52
2017-12-15T22:39:21.062Z,86.54
2017-12-15T22:41:47.365Z,86.79
2017-12-15T22:44:13.706Z,87.05
2017-12-15T22:46:40.096Z,87.50
2017-12-15T22:49:06.498Z,87.82
2017-12-15T22:51:32.942Z,87.85
2017-12-15T22:53:59.229Z,88.10
2017-12-15T22:56:25.459Z,88.46
2017-12-15T22:58:51.560Z,88.84
2017-12-15T23:01:17.664Z,89.22
2017-12-15T23:03:43.757Z,89.78
2017-12-15T23:06:09.852Z,90.21
2017-12-15T23:08:35.923Z,90.78
2017-12-15T23:11:02.153Z,91.42
2017-12-15T23:13:28.290Z,91.67
2017-12-15T23:15:54.527Z,91.98
2017-12-15T23:18:20.709Z,92.02
2017-12-15T23:20:46.840Z,92.46
2017-12-15T23:23:12.978Z,92.85
2017-12-15T23:25:39.210Z,93.03
2017-12-15T23:28:05.347Z,93.55
2017-12-15T23:30:31.684Z,93.93
2017-12-15T23:32:57.912Z,94.18
2017-12-15T23:35:24.150Z,94.46
2017-12-15T23:37:50.262Z,94.91
2017-12-15T23:40:16.508Z,95.11
2017-12-15T23:42:42.717Z,95.34
2017-12-15T23:45:08.884Z,95.40
2017-12-15T23:47:34.988Z,95.59
2017-12-15T23:50:01.181Z,95.25
2017-12-15T23:52:27.370Z,95.26
2017-12-15T23:55:05.598Z,95.03
2017-12-15T23:57:31.796Z,95.21
2017-12-15T23:59:58.106Z,95.41
